sensor_id;sensor_type;location;lat;lon;timestamp;P1;durP1;ratioP1;P2;durP2;ratioP2
44165;SDS011;30476;53.468;9.826;2023-04-24T00:00:18;7.60;;;7.00;;
44165;SDS011;30476;53.468;9.826;2023-04-24T00:02:44;6.10;;;5.60;;
44165;SDS011;30476;53.468;9.826;2023-04-24T00:05:12;7.33;;;6.73;;
44165;SDS011;30476;53.468;9.826;2023-04-24T00:07:40;8.13;;;7.50;;
44165;SDS011;30476;53.468;9.826;2023-04-24T00:10:06;6.60;;;6.03;;
44165;SDS011;30476;53.468;9.826;2023-04-24T00:12:33;6.00;;;5.60;;
44165;SDS011;30476;53.468;9.826;2023-04-24T00:14:59;7.10;;;6.40;;
44165;SDS011;30476;53.468;9.826;2023-04-24T00:17:25;6.03;;;5.67;;
44165;SDS011;30476;53.468;9.826;2023-04-24T00:19:51;6.90;;;6.40;;
44165;SDS011;30476;53.468;9.826;2023-04-24T00:22:27;7.57;;;6.87;;
44165;SDS011;30476;53.468;9.826;2023-04-24T00:24:53;7.43;;;6.93;;
44165;SDS011;30476;53.468;9.826;2023-04-24T00:27:19;7.50;;;7.00;;
44165;SDS011;30476;53.468;9.826;2023-04-24T00:29:45;7.80;;;7.07;;
44165;SDS011;30476;53.468;9.826;2023-04-24T00:32:11;8.20;;;7.40;;
44165;SDS011;30476;53.468;9.826;2023-04-24T00:34:37;6.90;;;6.47;;
44165;SDS011;30476;53.468;9.826;2023-04-24T00:37:03;6.87;;;6.37;;
44165;SDS011;30476;53.468;9.826;2023-04-24T00:39:28;8.73;;;7.27;;
44165;SDS011;30476;53.468;9.826;2023-04-24T00:41:54;7.00;;;6.50;;
44165;SDS011;30476;53.468;9.826;2023-04-24T00:44:21;6.10;;;5.70;;
44165;SDS011;30476;53.468;9.826;2023-04-24T00:46:47;5.77;;;5.37;;
44165;SDS011;30476;53.468;9.826;2023-04-24T00:49:23;4.50;;;4.07;;
44165;SDS011;30476;53.468;9.826;2023-04-24T00:51:49;4.93;;;4.53;;
44165;SDS011;30476;53.468;9.826;2023-04-24T00:54:16;3.97;;;3.67;;
44165;SDS011;30476;53.468;9.826;2023-04-24T00:56:44;4.30;;;4.10;;
44165;SDS011;30476;53.468;9.826;2023-04-24T00:59:11;4.27;;;3.97;;
44165;SDS011;30476;53.468;9.826;2023-04-24T01:01:37;3.73;;;3.53;;
44165;SDS011;30476;53.468;9.826;2023-04-24T01:04:07;3.50;;;3.20;;
44165;SDS011;30476;53.468;9.826;2023-04-24T01:06:35;3.00;;;2.80;;
44165;SDS011;30476;53.468;9.826;2023-04-24T01:09:04;3.50;;;3.13;;
44165;SDS011;30476;53.468;9.826;2023-04-24T01:11:30;4.07;;;3.57;;
44165;SDS011;30476;53.468;9.826;2023-04-24T01:13:56;3.53;;;3.30;;
44165;SDS011;30476;53.468;9.826;2023-04-24T01:16:24;3.60;;;3.40;;
44165;SDS011;30476;53.468;9.826;2023-04-24T01:18:50;3.47;;;3.17;;
44165;SDS011;30476;53.468;9.826;2023-04-24T01:21:16;4.03;;;3.20;;
44165;SDS011;30476;53.468;9.826;2023-04-24T01:23:44;2.70;;;2.50;;
44165;SDS011;30476;53.468;9.826;2023-04-24T01:26:10;2.80;;;2.60;;
44165;SDS011;30476;53.468;9.826;2023-04-24T01:28:37;3.10;;;2.90;;
44165;SDS011;30476;53.468;9.826;2023-04-24T01:31:03;2.90;;;2.80;;
44165;SDS011;30476;53.468;9.826;2023-04-24T01:33:29;4.43;;;2.87;;
44165;SDS011;30476;53.468;9.826;2023-04-24T01:35:55;2.90;;;2.70;;
44165;SDS011;30476;53.468;9.826;2023-04-24T01:38:21;2.80;;;2.60;;
44165;SDS011;30476;53.468;9.826;2023-04-24T01:40:47;4.13;;;2.80;;
44165;SDS011;30476;53.468;9.826;2023-04-24T01:43:13;2.77;;;2.53;;
44165;SDS011;30476;53.468;9.826;2023-04-24T01:45:39;2.83;;;2.63;;
44165;SDS011;30476;53.468;9.826;2023-04-24T01:48:05;2.40;;;2.20;;
44165;SDS011;30476;53.468;9.826;2023-04-24T01:50:31;2.17;;;2.07;;
44165;SDS011;30476;53.468;9.826;2023-04-24T01:52:57;2.50;;;2.40;;
44165;SDS011;30476;53.468;9.826;2023-04-24T01:55:23;2.50;;;2.40;;
44165;SDS011;30476;53.468;9.826;2023-04-24T01:57:48;2.57;;;2.37;;
44165;SDS011;30476;53.468;9.826;2023-04-24T02:00:15;4.10;;;2.43;;
44165;SDS011;30476;53.468;9.826;2023-04-24T02:02:41;2.77;;;2.60;;
44165;SDS011;30476;53.468;9.826;2023-04-24T02:05:07;2.60;;;2.40;;
44165;SDS011;30476;53.468;9.826;2023-04-24T02:07:33;2.10;;;2.00;;
44165;SDS011;30476;53.468;9.826;2023-04-24T02:09:59;3.13;;;2.70;;
44165;SDS011;30476;53.468;9.826;2023-04-24T02:12:25;2.00;;;1.90;;
44165;SDS011;30476;53.468;9.826;2023-04-24T02:14:51;2.20;;;2.10;;
44165;SDS011;30476;53.468;9.826;2023-04-24T02:17:17;2.20;;;2.10;;
44165;SDS011;30476;53.468;9.826;2023-04-24T02:19:44;2.70;;;2.33;;
44165;SDS011;30476;53.468;9.826;2023-04-24T02:22:10;2.30;;;2.20;;
44165;SDS011;30476;53.468;9.826;2023-04-24T02:24:36;2.93;;;2.70;;
44165;SDS011;30476;53.468;9.826;2023-04-24T02:27:03;2.57;;;2.43;;
44165;SDS011;30476;53.468;9.826;2023-04-24T02:29:29;2.43;;;2.30;;
44165;SDS011;30476;53.468;9.826;2023-04-24T02:31:54;2.63;;;2.47;;
44165;SDS011;30476;53.468;9.826;2023-04-24T02:34:20;2.43;;;2.20;;
44165;SDS011;30476;53.468;9.826;2023-04-24T02:36:46;2.77;;;2.67;;
44165;SDS011;30476;53.468;9.826;2023-04-24T02:39:12;2.53;;;2.07;;
44165;SDS011;30476;53.468;9.826;2023-04-24T02:41:38;3.00;;;2.80;;
44165;SDS011;30476;53.468;9.826;2023-04-24T02:44:04;2.50;;;2.30;;
44165;SDS011;30476;53.468;9.826;2023-04-24T02:46:30;2.57;;;2.37;;
44165;SDS011;30476;53.468;9.826;2023-04-24T02:48:55;2.57;;;2.37;;
44165;SDS011;30476;53.468;9.826;2023-04-24T02:51:21;2.50;;;2.40;;
44165;SDS011;30476;53.468;9.826;2023-04-24T02:53:47;12.83;;;3.50;;
44165;SDS011;30476;53.468;9.826;2023-04-24T02:56:13;2.23;;;2.00;;
44165;SDS011;30476;53.468;9.826;2023-04-24T02:58:38;2.00;;;1.90;;
44165;SDS011;30476;53.468;9.826;2023-04-24T03:01:04;2.03;;;1.93;;
44165;SDS011;30476;53.468;9.826;2023-04-24T03:03:30;2.30;;;2.20;;
44165;SDS011;30476;53.468;9.826;2023-04-24T03:05:56;1.77;;;1.67;;
44165;SDS011;30476;53.468;9.826;2023-04-24T03:08:22;1.80;;;1.70;;
44165;SDS011;30476;53.468;9.826;2023-04-24T03:10:48;1.90;;;1.80;;
44165;SDS011;30476;53.468;9.826;2023-04-24T03:13:15;2.00;;;1.90;;
44165;SDS011;30476;53.468;9.826;2023-04-24T03:15:41;1.77;;;1.67;;
44165;SDS011;30476;53.468;9.826;2023-04-24T03:18:07;1.53;;;1.43;;
44165;SDS011;30476;53.468;9.826;2023-04-24T03:20:33;2.47;;;2.13;;
44165;SDS011;30476;53.468;9.826;2023-04-24T03:22:59;2.10;;;1.90;;
44165;SDS011;30476;53.468;9.826;2023-04-24T03:25:25;2.63;;;1.83;;
44165;SDS011;30476;53.468;9.826;2023-04-24T03:27:50;2.03;;;1.93;;
44165;SDS011;30476;53.468;9.826;2023-04-24T03:30:16;1.80;;;1.70;;
44165;SDS011;30476;53.468;9.826;2023-04-24T03:32:42;2.37;;;1.80;;
44165;SDS011;30476;53.468;9.826;2023-04-24T03:35:08;1.80;;;1.70;;
44165;SDS011;30476;53.468;9.826;2023-04-24T03:37:34;1.90;;;1.80;;
44165;SDS011;30476;53.468;9.826;2023-04-24T03:40:01;2.00;;;1.90;;
44165;SDS011;30476;53.468;9.826;2023-04-24T03:42:27;1.87;;;1.77;;
44165;SDS011;30476;53.468;9.826;2023-04-24T03:44:53;2.10;;;2.00;;
44165;SDS011;30476;53.468;9.826;2023-04-24T03:47:18;2.03;;;1.93;;
44165;SDS011;30476;53.468;9.826;2023-04-24T03:49:44;1.93;;;1.83;;
44165;SDS011;30476;53.468;9.826;2023-04-24T03:52:10;1.97;;;1.73;;
44165;SDS011;30476;53.468;9.826;2023-04-24T03:54:36;1.63;;;1.53;;
44165;SDS011;30476;53.468;9.826;2023-04-24T03:57:01;1.60;;;1.50;;
44165;SDS011;30476;53.468;9.826;2023-04-24T03:59:28;2.00;;;1.90;;
44165;SDS011;30476;53.468;9.826;2023-04-24T04:01:54;2.50;;;2.17;;
44165;SDS011;30476;53.468;9.826;2023-04-24T04:04:20;1.77;;;1.67;;
44165;SDS011;30476;53.468;9.826;2023-04-24T04:06:46;1.83;;;1.73;;
44165;SDS011;30476;53.468;9.826;2023-04-24T04:09:11;2.20;;;1.73;;
44165;SDS011;30476;53.468;9.826;2023-04-24T04:11:37;1.90;;;1.80;;
44165;SDS011;30476;53.468;9.826;2023-04-24T04:14:03;1.77;;;1.67;;
44165;SDS011;30476;53.468;9.826;2023-04-24T04:16:29;1.80;;;1.67;;
44165;SDS011;30476;53.468;9.826;2023-04-24T04:18:55;2.00;;;1.80;;
44165;SDS011;30476;53.468;9.826;2023-04-24T04:21:21;1.40;;;1.30;;
44165;SDS011;30476;53.468;9.826;2023-04-24T04:23:46;2.53;;;2.40;;
44165;SDS011;30476;53.468;9.826;2023-04-24T04:26:13;1.73;;;1.63;;
44165;SDS011;30476;53.468;9.826;2023-04-24T04:28:39;1.80;;;1.70;;
44165;SDS011;30476;53.468;9.826;2023-04-24T04:31:05;3.00;;;2.00;;
44165;SDS011;30476;53.468;9.826;2023-04-24T04:33:33;1.80;;;1.70;;
44165;SDS011;30476;53.468;9.826;2023-04-24T04:35:59;1.60;;;1.50;;
44165;SDS011;30476;53.468;9.826;2023-04-24T04:38:25;1.70;;;1.60;;
44165;SDS011;30476;53.468;9.826;2023-04-24T04:40:55;2.23;;;2.13;;
44165;SDS011;30476;53.468;9.826;2023-04-24T04:43:23;1.50;;;1.40;;
44165;SDS011;30476;53.468;9.826;2023-04-24T04:45:49;1.50;;;1.40;;
44165;SDS011;30476;53.468;9.826;2023-04-24T04:48:16;1.50;;;1.40;;
44165;SDS011;30476;53.468;9.826;2023-04-24T04:50:44;1.80;;;1.70;;
44165;SDS011;30476;53.468;9.826;2023-04-24T04:53:10;1.60;;;1.50;;
44165;SDS011;30476;53.468;9.826;2023-04-24T04:55:36;1.60;;;1.50;;
44165;SDS011;30476;53.468;9.826;2023-04-24T04:58:02;1.90;;;1.80;;
44165;SDS011;30476;53.468;9.826;2023-04-24T05:00:28;1.33;;;1.30;;
44165;SDS011;30476;53.468;9.826;2023-04-24T05:02:59;1.40;;;1.37;;
44165;SDS011;30476;53.468;9.826;2023-04-24T05:05:25;1.37;;;1.27;;
44165;SDS011;30476;53.468;9.826;2023-04-24T05:07:51;1.50;;;1.40;;
44165;SDS011;30476;53.468;9.826;2023-04-24T05:10:17;1.47;;;1.37;;
44165;SDS011;30476;53.468;9.826;2023-04-24T05:12:42;1.63;;;1.53;;
44165;SDS011;30476;53.468;9.826;2023-04-24T05:15:08;1.30;;;1.20;;
44165;SDS011;30476;53.468;9.826;2023-04-24T05:17:34;1.20;;;1.10;;
44165;SDS011;30476;53.468;9.826;2023-04-24T05:20:00;1.20;;;1.20;;
44165;SDS011;30476;53.468;9.826;2023-04-24T05:22:26;2.30;;;1.50;;
44165;SDS011;30476;53.468;9.826;2023-04-24T05:24:52;1.90;;;1.80;;
44165;SDS011;30476;53.468;9.826;2023-04-24T05:27:18;1.37;;;1.27;;
44165;SDS011;30476;53.468;9.826;2023-04-24T05:29:44;1.23;;;1.17;;
44165;SDS011;30476;53.468;9.826;2023-04-24T05:32:10;1.10;;;1.00;;
44165;SDS011;30476;53.468;9.826;2023-04-24T05:34:36;1.50;;;1.40;;
44165;SDS011;30476;53.468;9.826;2023-04-24T05:37:01;1.47;;;1.37;;
44165;SDS011;30476;53.468;9.826;2023-04-24T05:39:28;2.70;;;1.83;;
44165;SDS011;30476;53.468;9.826;2023-04-24T05:41:54;1.10;;;1.10;;
44165;SDS011;30476;53.468;9.826;2023-04-24T05:44:23;1.60;;;1.43;;
44165;SDS011;30476;53.468;9.826;2023-04-24T05:46:48;1.50;;;1.37;;
44165;SDS011;30476;53.468;9.826;2023-04-24T05:49:14;1.43;;;1.33;;
44165;SDS011;30476;53.468;9.826;2023-04-24T05:51:40;1.20;;;1.17;;
44165;SDS011;30476;53.468;9.826;2023-04-24T05:54:06;1.53;;;1.20;;
44165;SDS011;30476;53.468;9.826;2023-04-24T05:56:32;1.20;;;1.10;;
44165;SDS011;30476;53.468;9.826;2023-04-24T05:58:58;1.43;;;1.30;;
44165;SDS011;30476;53.468;9.826;2023-04-24T06:01:23;1.23;;;1.20;;
44165;SDS011;30476;53.468;9.826;2023-04-24T06:03:50;1.40;;;1.30;;
44165;SDS011;30476;53.468;9.826;2023-04-24T06:06:16;1.20;;;1.10;;
44165;SDS011;30476;53.468;9.826;2023-04-24T06:08:41;1.10;;;1.10;;
44165;SDS011;30476;53.468;9.826;2023-04-24T06:11:09;1.50;;;1.40;;
44165;SDS011;30476;53.468;9.826;2023-04-24T06:13:35;1.73;;;1.60;;
44165;SDS011;30476;53.468;9.826;2023-04-24T06:16:01;2.50;;;1.70;;
44165;SDS011;30476;53.468;9.826;2023-04-24T06:18:26;1.40;;;1.30;;
44165;SDS011;30476;53.468;9.826;2023-04-24T06:20:52;1.60;;;1.30;;
44165;SDS011;30476;53.468;9.826;2023-04-24T06:23:18;1.50;;;1.40;;
44165;SDS011;30476;53.468;9.826;2023-04-24T06:25:44;1.70;;;1.60;;
44165;SDS011;30476;53.468;9.826;2023-04-24T06:28:10;1.87;;;1.77;;
44165;SDS011;30476;53.468;9.826;2023-04-24T06:30:35;1.80;;;1.70;;
44165;SDS011;30476;53.468;9.826;2023-04-24T06:33:01;1.50;;;1.40;;
44165;SDS011;30476;53.468;9.826;2023-04-24T06:35:27;1.80;;;1.70;;
44165;SDS011;30476;53.468;9.826;2023-04-24T06:37:52;1.90;;;1.80;;
44165;SDS011;30476;53.468;9.826;2023-04-24T06:40:18;1.80;;;1.70;;
44165;SDS011;30476;53.468;9.826;2023-04-24T06:42:44;1.73;;;1.63;;
44165;SDS011;30476;53.468;9.826;2023-04-24T06:45:10;2.43;;;2.33;;
44165;SDS011;30476;53.468;9.826;2023-04-24T06:47:36;1.77;;;1.67;;
44165;SDS011;30476;53.468;9.826;2023-04-24T06:50:03;2.07;;;1.97;;
44165;SDS011;30476;53.468;9.826;2023-04-24T06:52:29;2.07;;;1.97;;
44165;SDS011;30476;53.468;9.826;2023-04-24T06:55:01;2.50;;;2.40;;
44165;SDS011;30476;53.468;9.826;2023-04-24T06:57:28;2.23;;;2.10;;
44165;SDS011;30476;53.468;9.826;2023-04-24T06:59:54;3.20;;;2.90;;
44165;SDS011;30476;53.468;9.826;2023-04-24T07:02:20;3.03;;;2.77;;
44165;SDS011;30476;53.468;9.826;2023-04-24T07:04:46;2.77;;;2.57;;
44165;SDS011;30476;53.468;9.826;2023-04-24T07:07:13;2.60;;;2.50;;
44165;SDS011;30476;53.468;9.826;2023-04-24T07:09:39;3.30;;;3.10;;
44165;SDS011;30476;53.468;9.826;2023-04-24T07:12:08;3.27;;;3.10;;
44165;SDS011;30476;53.468;9.826;2023-04-24T07:14:35;2.87;;;2.77;;
44165;SDS011;30476;53.468;9.826;2023-04-24T07:17:02;3.00;;;2.80;;
44165;SDS011;30476;53.468;9.826;2023-04-24T07:19:29;3.73;;;3.53;;
44165;SDS011;30476;53.468;9.826;2023-04-24T07:21:55;3.33;;;3.13;;
44165;SDS011;30476;53.468;9.826;2023-04-24T07:24:20;3.73;;;3.53;;
44165;SDS011;30476;53.468;9.826;2023-04-24T07:26:46;3.90;;;3.70;;
44165;SDS011;30476;53.468;9.826;2023-04-24T07:29:12;4.37;;;4.07;;
44165;SDS011;30476;53.468;9.826;2023-04-24T07:31:39;4.60;;;4.33;;
44165;SDS011;30476;53.468;9.826;2023-04-24T07:34:06;4.43;;;4.23;;
44165;SDS011;30476;53.468;9.826;2023-04-24T07:36:32;5.10;;;4.70;;
44165;SDS011;30476;53.468;9.826;2023-04-24T07:38:58;5.33;;;4.97;;
44165;SDS011;30476;53.468;9.826;2023-04-24T07:41:23;4.40;;;4.20;;
44165;SDS011;30476;53.468;9.826;2023-04-24T07:43:49;5.30;;;5.00;;
44165;SDS011;30476;53.468;9.826;2023-04-24T07:46:15;5.87;;;5.47;;
44165;SDS011;30476;53.468;9.826;2023-04-24T07:48:41;7.40;;;4.70;;
44165;SDS011;30476;53.468;9.826;2023-04-24T07:51:07;5.00;;;4.70;;
44165;SDS011;30476;53.468;9.826;2023-04-24T07:53:35;5.60;;;5.10;;
44165;SDS011;30476;53.468;9.826;2023-04-24T07:56:01;5.83;;;5.20;;
44165;SDS011;30476;53.468;9.826;2023-04-24T07:58:26;5.63;;;5.30;;
44165;SDS011;30476;53.468;9.826;2023-04-24T08:00:52;5.53;;;5.13;;
44165;SDS011;30476;53.468;9.826;2023-04-24T08:03:18;4.80;;;4.40;;
44165;SDS011;30476;53.468;9.826;2023-04-24T08:05:45;5.57;;;5.27;;
44165;SDS011;30476;53.468;9.826;2023-04-24T08:08:11;5.40;;;5.00;;
44165;SDS011;30476;53.468;9.826;2023-04-24T08:10:37;5.07;;;4.73;;
44165;SDS011;30476;53.468;9.826;2023-04-24T08:13:02;6.70;;;6.30;;
44165;SDS011;30476;53.468;9.826;2023-04-24T08:15:28;5.90;;;5.50;;
44165;SDS011;30476;53.468;9.826;2023-04-24T08:17:54;4.93;;;4.63;;
44165;SDS011;30476;53.468;9.826;2023-04-24T08:20:20;5.90;;;5.33;;
44165;SDS011;30476;53.468;9.826;2023-04-24T08:22:46;5.50;;;5.20;;
44165;SDS011;30476;53.468;9.826;2023-04-24T08:25:13;6.40;;;5.93;;
44165;SDS011;30476;53.468;9.826;2023-04-24T08:27:39;7.10;;;6.37;;
44165;SDS011;30476;53.468;9.826;2023-04-24T08:30:06;6.93;;;6.43;;
44165;SDS011;30476;53.468;9.826;2023-04-24T08:32:32;6.03;;;5.60;;
44165;SDS011;30476;53.468;9.826;2023-04-24T08:34:58;6.43;;;6.03;;
44165;SDS011;30476;53.468;9.826;2023-04-24T08:37:25;6.93;;;6.40;;
44165;SDS011;30476;53.468;9.826;2023-04-24T08:39:51;7.60;;;7.00;;
44165;SDS011;30476;53.468;9.826;2023-04-24T08:42:18;7.03;;;6.53;;
44165;SDS011;30476;53.468;9.826;2023-04-24T08:44:44;6.37;;;5.80;;
44165;SDS011;30476;53.468;9.826;2023-04-24T08:47:11;7.23;;;6.63;;
44165;SDS011;30476;53.468;9.826;2023-04-24T08:49:37;7.30;;;6.80;;
44165;SDS011;30476;53.468;9.826;2023-04-24T08:52:07;7.40;;;6.73;;
44165;SDS011;30476;53.468;9.826;2023-04-24T08:54:33;6.33;;;5.93;;
44165;SDS011;30476;53.468;9.826;2023-04-24T08:57:01;7.10;;;6.40;;
44165;SDS011;30476;53.468;9.826;2023-04-24T08:59:29;6.87;;;6.37;;
44165;SDS011;30476;53.468;9.826;2023-04-24T09:01:56;7.70;;;7.10;;
44165;SDS011;30476;53.468;9.826;2023-04-24T09:04:22;6.20;;;5.70;;
44165;SDS011;30476;53.468;9.826;2023-04-24T09:06:50;6.47;;;6.07;;
44165;SDS011;30476;53.468;9.826;2023-04-24T09:09:19;6.40;;;5.90;;
44165;SDS011;30476;53.468;9.826;2023-04-24T09:11:46;6.83;;;6.33;;
44165;SDS011;30476;53.468;9.826;2023-04-24T09:14:14;6.57;;;6.00;;
44165;SDS011;30476;53.468;9.826;2023-04-24T09:16:40;6.80;;;6.17;;
44165;SDS011;30476;53.468;9.826;2023-04-24T09:19:06;5.67;;;5.37;;
44165;SDS011;30476;53.468;9.826;2023-04-24T09:21:32;4.87;;;4.57;;
44165;SDS011;30476;53.468;9.826;2023-04-24T09:24:00;7.00;;;6.50;;
44165;SDS011;30476;53.468;9.826;2023-04-24T09:26:29;6.67;;;6.07;;
44165;SDS011;30476;53.468;9.826;2023-04-24T09:28:59;7.20;;;6.57;;
44165;SDS011;30476;53.468;9.826;2023-04-24T09:31:29;7.53;;;6.87;;
44165;SDS011;30476;53.468;9.826;2023-04-24T09:33:56;7.40;;;6.80;;
44165;SDS011;30476;53.468;9.826;2023-04-24T09:36:42;6.80;;;6.20;;
44165;SDS011;30476;53.468;9.826;2023-04-24T09:39:09;8.00;;;7.30;;
44165;SDS011;30476;53.468;9.826;2023-04-24T09:41:44;8.07;;;7.47;;
44165;SDS011;30476;53.468;9.826;2023-04-24T09:44:11;6.87;;;6.37;;
44165;SDS011;30476;53.468;9.826;2023-04-24T09:46:38;8.33;;;7.60;;
44165;SDS011;30476;53.468;9.826;2023-04-24T09:49:08;8.37;;;7.67;;
44165;SDS011;30476;53.468;9.826;2023-04-24T09:51:36;7.90;;;7.20;;
44165;SDS011;30476;53.468;9.826;2023-04-24T09:54:03;9.63;;;8.77;;
44165;SDS011;30476;53.468;9.826;2023-04-24T09:56:35;9.37;;;8.67;;
44165;SDS011;30476;53.468;9.826;2023-04-24T09:59:05;9.23;;;8.10;;
44165;SDS011;30476;53.468;9.826;2023-04-24T10:01:32;10.10;;;9.10;;
44165;SDS011;30476;53.468;9.826;2023-04-24T10:03:58;9.40;;;8.50;;
44165;SDS011;30476;53.468;9.826;2023-04-24T10:06:34;11.10;;;9.40;;
44165;SDS011;30476;53.468;9.826;2023-04-24T10:09:00;9.87;;;8.83;;
44165;SDS011;30476;53.468;9.826;2023-04-24T10:11:26;10.70;;;9.70;;
44165;SDS011;30476;53.468;9.826;2023-04-24T10:13:53;10.27;;;9.27;;
44165;SDS011;30476;53.468;9.826;2023-04-24T10:16:19;11.10;;;9.87;;
44165;SDS011;30476;53.468;9.826;2023-04-24T10:18:47;11.83;;;10.27;;
44165;SDS011;30476;53.468;9.826;2023-04-24T10:21:14;10.83;;;9.73;;
44165;SDS011;30476;53.468;9.826;2023-04-24T10:23:40;10.90;;;9.70;;
44165;SDS011;30476;53.468;9.826;2023-04-24T10:26:08;12.40;;;9.53;;
44165;SDS011;30476;53.468;9.826;2023-04-24T10:28:36;11.23;;;10.13;;
44165;SDS011;30476;53.468;9.826;2023-04-24T10:31:02;11.03;;;9.93;;
44165;SDS011;30476;53.468;9.826;2023-04-24T10:33:28;11.33;;;9.43;;
44165;SDS011;30476;53.468;9.826;2023-04-24T10:35:55;12.27;;;9.90;;
44165;SDS011;30476;53.468;9.826;2023-04-24T10:38:26;9.90;;;9.10;;
44165;SDS011;30476;53.468;9.826;2023-04-24T10:40:57;11.53;;;10.33;;
44165;SDS011;30476;53.468;9.826;2023-04-24T10:43:33;12.07;;;9.17;;
44165;SDS011;30476;53.468;9.826;2023-04-24T10:46:00;9.97;;;9.00;;
44165;SDS011;30476;53.468;9.826;2023-04-24T10:48:27;11.40;;;10.30;;
44165;SDS011;30476;53.468;9.826;2023-04-24T10:50:53;10.80;;;9.80;;
44165;SDS011;30476;53.468;9.826;2023-04-24T10:53:28;10.57;;;9.53;;
44165;SDS011;30476;53.468;9.826;2023-04-24T10:56:07;10.40;;;9.40;;
44165;SDS011;30476;53.468;9.826;2023-04-24T10:58:45;11.23;;;9.93;;
44165;SDS011;30476;53.468;9.826;2023-04-24T11:04:00;10.33;;;9.23;;
44165;SDS011;30476;53.468;9.826;2023-04-24T11:06:34;11.20;;;10.10;;
44165;SDS011;30476;53.468;9.826;2023-04-24T11:09:04;9.53;;;8.53;;
44165;SDS011;30476;53.468;9.826;2023-04-24T11:11:32;10.47;;;9.20;;
44165;SDS011;30476;53.468;9.826;2023-04-24T11:16:29;9.97;;;9.07;;
44165;SDS011;30476;53.468;9.826;2023-04-24T11:19:05;11.30;;;10.20;;
44165;SDS011;30476;53.468;9.826;2023-04-24T11:21:39;10.57;;;9.57;;
44165;SDS011;30476;53.468;9.826;2023-04-24T11:24:48;10.63;;;9.60;;
44165;SDS011;30476;53.468;9.826;2023-04-24T11:29:46;10.37;;;9.40;;
44165;SDS011;30476;53.468;9.826;2023-04-24T11:32:34;9.30;;;8.40;;
44165;SDS011;30476;53.468;9.826;2023-04-24T11:35:08;8.70;;;8.00;;
44165;SDS011;30476;53.468;9.826;2023-04-24T11:37:43;9.10;;;8.17;;
44165;SDS011;30476;53.468;9.826;2023-04-24T11:40:12;8.47;;;7.77;;
44165;SDS011;30476;53.468;9.826;2023-04-24T11:42:41;8.47;;;7.67;;
44165;SDS011;30476;53.468;9.826;2023-04-24T11:45:09;7.97;;;6.43;;
44165;SDS011;30476;53.468;9.826;2023-04-24T11:47:38;8.20;;;7.50;;
44165;SDS011;30476;53.468;9.826;2023-04-24T11:50:05;8.20;;;7.50;;
44165;SDS011;30476;53.468;9.826;2023-04-24T11:52:33;8.10;;;7.40;;
44165;SDS011;30476;53.468;9.826;2023-04-24T11:55:03;7.93;;;7.33;;
44165;SDS011;30476;53.468;9.826;2023-04-24T11:57:29;7.10;;;6.43;;
44165;SDS011;30476;53.468;9.826;2023-04-24T12:00:02;7.70;;;7.10;;
44165;SDS011;30476;53.468;9.826;2023-04-24T12:02:30;7.70;;;7.10;;
44165;SDS011;30476;53.468;9.826;2023-04-24T12:04:56;7.93;;;7.27;;
44165;SDS011;30476;53.468;9.826;2023-04-24T12:07:23;8.10;;;7.40;;
44165;SDS011;30476;53.468;9.826;2023-04-24T12:09:55;11.10;;;7.47;;
44165;SDS011;30476;53.468;9.826;2023-04-24T12:12:24;7.97;;;7.27;;
44165;SDS011;30476;53.468;9.826;2023-04-24T12:14:57;7.40;;;6.77;;
44165;SDS011;30476;53.468;9.826;2023-04-24T12:17:27;7.70;;;6.93;;
44165;SDS011;30476;53.468;9.826;2023-04-24T12:20:13;8.40;;;7.70;;
44165;SDS011;30476;53.468;9.826;2023-04-24T12:22:52;8.07;;;7.37;;
44165;SDS011;30476;53.468;9.826;2023-04-24T12:25:21;7.50;;;6.90;;
44165;SDS011;30476;53.468;9.826;2023-04-24T12:30:29;7.70;;;7.00;;
44165;SDS011;30476;53.468;9.826;2023-04-24T12:32:59;7.37;;;6.87;;
44165;SDS011;30476;53.468;9.826;2023-04-24T12:35:27;7.53;;;6.73;;
44165;SDS011;30476;53.468;9.826;2023-04-24T12:37:54;7.33;;;6.73;;
44165;SDS011;30476;53.468;9.826;2023-04-24T12:40:20;8.57;;;7.77;;
44165;SDS011;30476;53.468;9.826;2023-04-24T12:45:14;7.10;;;6.53;;
44165;SDS011;30476;53.468;9.826;2023-04-24T12:47:41;6.70;;;6.20;;
44165;SDS011;30476;53.468;9.826;2023-04-24T12:50:11;6.80;;;6.30;;
44165;SDS011;30476;53.468;9.826;2023-04-24T12:52:39;6.23;;;5.73;;
44165;SDS011;30476;53.468;9.826;2023-04-24T12:55:05;6.37;;;5.87;;
44165;SDS011;30476;53.468;9.826;2023-04-24T12:57:33;5.73;;;5.33;;
44165;SDS011;30476;53.468;9.826;2023-04-24T13:00:00;5.93;;;5.50;;
44165;SDS011;30476;53.468;9.826;2023-04-24T13:02:27;6.10;;;5.70;;
44165;SDS011;30476;53.468;9.826;2023-04-24T13:04:56;6.53;;;6.03;;
44165;SDS011;30476;53.468;9.826;2023-04-24T13:07:22;6.13;;;5.63;;
44165;SDS011;30476;53.468;9.826;2023-04-24T13:09:49;7.30;;;6.77;;
44165;SDS011;30476;53.468;9.826;2023-04-24T13:12:16;6.47;;;5.97;;
44165;SDS011;30476;53.468;9.826;2023-04-24T13:14:42;6.43;;;5.93;;
44165;SDS011;30476;53.468;9.826;2023-04-24T13:17:08;5.70;;;5.40;;
44165;SDS011;30476;53.468;9.826;2023-04-24T13:19:38;6.60;;;6.10;;
44165;SDS011;30476;53.468;9.826;2023-04-24T13:22:06;6.40;;;6.00;;
44165;SDS011;30476;53.468;9.826;2023-04-24T13:24:32;6.30;;;5.80;;
44165;SDS011;30476;53.468;9.826;2023-04-24T13:26:58;7.50;;;6.90;;
44165;SDS011;30476;53.468;9.826;2023-04-24T13:29:25;6.03;;;5.63;;
44165;SDS011;30476;53.468;9.826;2023-04-24T13:31:51;6.50;;;5.90;;
44165;SDS011;30476;53.468;9.826;2023-04-24T13:34:20;6.33;;;5.93;;
44165;SDS011;30476;53.468;9.826;2023-04-24T13:36:46;6.27;;;5.53;;
44165;SDS011;30476;53.468;9.826;2023-04-24T13:39:12;6.10;;;5.70;;
44165;SDS011;30476;53.468;9.826;2023-04-24T13:41:38;6.43;;;5.93;;
44165;SDS011;30476;53.468;9.826;2023-04-24T13:44:05;5.53;;;5.03;;
44165;SDS011;30476;53.468;9.826;2023-04-24T13:46:31;5.13;;;4.77;;
44165;SDS011;30476;53.468;9.826;2023-04-24T13:48:58;4.77;;;4.47;;
44165;SDS011;30476;53.468;9.826;2023-04-24T13:51:25;5.50;;;5.20;;
44165;SDS011;30476;53.468;9.826;2023-04-24T13:53:52;5.30;;;4.90;;
44165;SDS011;30476;53.468;9.826;2023-04-24T13:56:18;5.27;;;4.90;;
44165;SDS011;30476;53.468;9.826;2023-04-24T13:58:45;5.30;;;5.00;;
44165;SDS011;30476;53.468;9.826;2023-04-24T14:01:11;4.40;;;4.10;;
44165;SDS011;30476;53.468;9.826;2023-04-24T14:03:38;6.73;;;6.23;;
44165;SDS011;30476;53.468;9.826;2023-04-24T14:06:04;5.40;;;5.07;;
44165;SDS011;30476;53.468;9.826;2023-04-24T14:08:31;6.00;;;5.60;;
44165;SDS011;30476;53.468;9.826;2023-04-24T14:10:57;5.23;;;4.93;;
44165;SDS011;30476;53.468;9.826;2023-04-24T14:13:23;5.40;;;5.00;;
44165;SDS011;30476;53.468;9.826;2023-04-24T14:15:49;5.50;;;5.03;;
44165;SDS011;30476;53.468;9.826;2023-04-24T14:18:16;4.90;;;4.50;;
44165;SDS011;30476;53.468;9.826;2023-04-24T14:20:42;8.03;;;6.23;;
44165;SDS011;30476;53.468;9.826;2023-04-24T14:23:08;5.33;;;4.93;;
44165;SDS011;30476;53.468;9.826;2023-04-24T14:25:34;6.40;;;6.00;;
44165;SDS011;30476;53.468;9.826;2023-04-24T14:27:59;6.17;;;5.57;;
44165;SDS011;30476;53.468;9.826;2023-04-24T14:30:25;6.43;;;5.80;;
44165;SDS011;30476;53.468;9.826;2023-04-24T14:32:51;6.17;;;5.63;;
44165;SDS011;30476;53.468;9.826;2023-04-24T14:35:17;6.50;;;6.00;;
44165;SDS011;30476;53.468;9.826;2023-04-24T14:37:42;6.63;;;6.10;;
44165;SDS011;30476;53.468;9.826;2023-04-24T14:40:08;6.53;;;6.03;;
44165;SDS011;30476;53.468;9.826;2023-04-24T14:42:35;6.20;;;5.80;;
44165;SDS011;30476;53.468;9.826;2023-04-24T14:45:01;6.37;;;5.87;;
44165;SDS011;30476;53.468;9.826;2023-04-24T14:47:27;6.47;;;5.93;;
44165;SDS011;30476;53.468;9.826;2023-04-24T14:49:52;6.90;;;6.40;;
44165;SDS011;30476;53.468;9.826;2023-04-24T14:52:18;6.47;;;5.90;;
44165;SDS011;30476;53.468;9.826;2023-04-24T14:54:45;6.20;;;5.60;;
44165;SDS011;30476;53.468;9.826;2023-04-24T14:57:10;7.47;;;6.77;;